Time;durP1;ratioP1;P1;durP2;ratioP2;P2;SDS_P1;SDS_P2;PMS_P1;PMS_P2;Temp;Humidity;BMP_temperature;BMP_pressure;BME280_temperature;BME280_humidity;BME280_pressure;Samples;Min_cycle;Max_cycle;Signal;HPM_P1;HPM_P2
2023/06/08 00:06:13;;;;;;;8.00;6.90;;;20.30;72.00;;;;;;20765355;28;20215;-58
2023/06/08 00:16:15;;;;;;;6.90;6.20;;;20.20;72.60;;;;;;20759201;28;20217;-59
2023/06/08 00:26:17;;;;;;;7.97;6.40;;;20.10;72.20;;;;;;20758561;28;20216;-57
2023/06/08 00:36:19;;;;;;;7.07;6.10;;;20.00;73.60;;;;;;20757273;28;20208;-58
2023/06/08 00:46:24;;;;;;;8.20;6.70;;;19.80;73.70;;;;;;20756369;28;20589;-63
2023/06/08 00:56:31;;;;;;;6.77;6.03;;;19.70;74.10;;;;;;20756295;28;20221;-61
2023/06/08 01:06:38;;;;;;;6.47;5.87;;;19.60;75.50;;;;;;20755055;28;20325;-64
2023/06/08 01:16:50;;;;;;;8.13;6.40;;;19.50;76.50;;;;;;20753345;28;20218;-61
2023/06/08 01:26:57;;;;;;;6.97;6.00;;;19.50;77.10;;;;;;20753797;28;20843;-60
2023/06/08 01:37:13;;;;;;;8.43;6.47;;;19.50;77.30;;;;;;20752924;28;20217;-63
2023/06/08 01:47:16;;;;;;;6.97;6.27;;;19.50;77.80;;;;;;20751954;28;20248;-63
2023/06/08 01:57:18;;;;;;;9.73;6.40;;;19.40;78.20;;;;;;20783690;28;20303;-58
2023/06/08 02:07:21;;;;;;;9.67;6.73;;;;;;;;;;20795640;28;20325;-61
2023/06/08 02:17:27;;;;;;;9.77;6.57;;;19.20;79.80;;;;;;20750061;28;20228;-58
2023/06/08 02:27:29;;;;;;;9.80;7.13;;;19.20;80.30;;;;;;20749570;28;20234;-59
2023/06/08 02:37:32;;;;;;;12.73;8.00;;;19.20;81.20;;;;;;20788679;28;20231;-58
2023/06/08 02:47:34;;;;;;;9.20;7.53;;;19.10;82.10;;;;;;20748021;28;20300;-57
2023/06/08 02:57:38;;;;;;;8.17;7.27;;;19.10;82.50;;;;;;20748188;28;20206;-58
2023/06/08 03:07:40;;;;;;;8.80;7.50;;;19.20;83.00;;;;;;20747572;28;20596;-61
2023/06/08 03:17:42;;;;;;;18.53;8.63;;;19.10;85.00;;;;;;20747353;28;20215;-64
2023/06/08 03:27:44;;;;;;;17.33;9.63;;;19.10;87.10;;;;;;20747432;28;20239;-71
2023/06/08 03:37:46;;;;;;;17.30;9.33;;;18.70;90.00;;;;;;20754342;28;20210;-72
2023/06/08 03:47:48;;;;;;;15.53;8.40;;;18.70;90.70;;;;;;20761023;28;20761;-71
2023/06/08 03:57:50;;;;;;;15.17;9.83;;;18.80;92.00;;;;;;20760944;28;20258;-71
2023/06/08 04:07:52;;;;;;;15.20;10.17;;;18.80;92.60;;;;;;20760734;28;20666;-71
2023/06/08 04:17:54;;;;;;;13.57;8.63;;;18.80;93.30;;;;;;20759289;28;20568;-69
2023/06/08 04:27:56;;;;;;;12.03;8.90;;;18.90;93.90;;;;;;20759359;28;20661;-60
2023/06/08 04:37:58;;;;;;;12.60;8.87;;;19.10;94.60;;;;;;20797408;28;20298;-70
2023/06/08 04:48:00;;;;;;;10.47;7.90;;;19.30;95.30;;;;;;20756196;28;20247;-60
2023/06/08 04:58:02;;;;;;;12.77;8.50;;;19.30;95.20;;;;;;20756106;28;20294;-60
2023/06/08 05:08:04;;;;;;;14.13;8.10;;;19.60;95.40;;;;;;20755004;28;20236;-60
2023/06/08 05:18:06;;;;;;;12.43;7.70;;;20.00;95.30;;;;;;20754260;28;20223;-70
2023/06/08 05:28:08;;;;;;;10.80;8.70;;;20.60;94.80;;;;;;20753976;28;20241;-64
2023/06/08 05:38:10;;;;;;;8.47;7.33;;;20.70;95.10;;;;;;20752868;28;20206;-64
2023/06/08 05:48:12;;;;;;;8.60;7.70;;;21.00;93.90;;;;;;20750631;28;20256;-64
2023/06/08 05:58:15;;;;;;;13.20;8.07;;;21.10;93.20;;;;;;20750873;28;20254;-66
2023/06/08 06:08:16;;;;;;;8.73;7.83;;;21.10;92.70;;;;;;20750849;28;20328;-61
2023/06/08 06:18:19;;;;;;;8.80;7.67;;;21.20;92.00;;;;;;20750024;28;20212;-69
2023/06/08 06:28:21;;;;;;;10.40;7.87;;;21.20;91.60;;;;;;20764497;28;20295;-60
2023/06/08 06:38:24;;;;;;;11.00;7.50;;;21.40;91.00;;;;;;20749215;28;20209;-59
2023/06/08 06:48:26;;;;;;;8.40;7.00;;;21.60;90.50;;;;;;20748075;28;20756;-59
2023/06/08 06:58:27;;;;;;;8.07;6.80;;;21.90;89.80;;;;;;20747870;28;20633;-60
2023/06/08 07:08:29;;;;;;;7.93;7.07;;;21.90;88.60;;;;;;20748966;28;20294;-60
2023/06/08 07:18:31;;;;;;;7.63;6.87;;;22.20;87.70;;;;;;20764000;28;20213;-60
2023/06/08 07:28:33;;;;;;;8.23;7.03;;;22.10;86.50;;;;;;20762767;28;20281;-60
2023/06/08 07:38:34;;;;;;;16.47;6.57;;;22.00;86.00;;;;;;20762104;28;20253;-68
2023/06/08 07:48:36;;;;;;;11.73;7.10;;;22.10;84.60;;;;;;20761072;28;20332;-62
2023/06/08 07:58:38;;;;;;;10.90;6.67;;;22.10;85.10;;;;;;20760232;28;20213;-61
2023/06/08 08:08:40;;;;;;;9.20;6.90;;;22.40;83.50;;;;;;20759807;28;20237;-67
2023/06/08 08:18:42;;;;;;;10.67;7.20;;;22.20;84.00;;;;;;20757803;28;20236;-63
2023/06/08 08:28:44;;;;;;;9.80;7.50;;;22.10;84.60;;;;;;20771526;28;20653;-66
2023/06/08 08:38:46;;;;;;;8.63;7.60;;;22.10;85.10;;;;;;20772403;28;20300;-69
2023/06/08 08:48:53;;;;;;;10.30;7.90;;;22.00;86.80;;;;;;20769912;28;20608;-69
2023/06/08 08:58:55;;;;;;;9.67;8.67;;;21.60;90.30;;;;;;20755259;28;20209;-63
2023/06/08 09:08:57;;;;;;;9.23;8.33;;;21.60;90.80;;;;;;20754884;28;20241;-72
2023/06/08 09:19:05;;;;;;;15.17;12.07;;;21.40;91.70;;;;;;20856432;28;20594;-74
2023/06/08 09:29:07;;;;;;;10.53;8.43;;;21.50;92.30;;;;;;20899257;28;20699;-72
2023/06/08 09:39:10;;;;;;;11.87;8.50;;;21.90;92.90;;;;;;20833133;28;20243;-61
2023/06/08 09:49:16;;;;;;;10.57;7.97;;;22.70;91.60;;;;;;20855302;28;20241;-60
2023/06/08 09:59:22;;;;;;;11.83;8.20;;;22.90;91.50;;;;;;20902058;28;20652;-60
2023/06/08 10:09:28;;;;;;;9.30;7.80;;;23.30;90.80;;;;;;20832784;28;20236;-64
2023/06/08 10:19:35;;;;;;;9.67;8.50;;;23.90;89.80;;;;;;20868102;28;20204;-63
2023/06/08 10:29:37;;;;;;;10.43;7.53;;;24.10;88.80;;;;;;20914141;28;20691;-69
2023/06/08 10:39:48;;;;;;;8.87;7.37;;;24.30;87.30;;;;;;20913125;28;20199;-69
2023/06/08 10:50:00;;;;;;;6.53;5.90;;;24.60;85.20;;;;;;20907148;28;20267;-73
2023/06/08 11:00:23;;;;;;;6.77;6.17;;;24.80;82.90;;;;;;20829119;28;20578;-62
2023/06/08 11:10:25;;;;;;;5.97;5.40;;;25.20;79.50;;;;;;20829181;28;20693;-61
2023/06/08 11:20:28;;;;;;;8.03;5.37;;;25.40;77.20;;;;;;20827447;28;20734;-68
2023/06/08 11:30:31;;;;;;;7.27;5.43;;;25.90;74.10;;;;;;20833428;28;20687;-63
2023/06/08 11:40:34;;;;;;;8.17;5.70;;;26.50;71.00;;;;;;20875712;28;20660;-59
2023/06/08 11:50:36;;;;;;;7.80;5.40;;;26.60;68.30;;;;;;20833611;28;20328;-65
2023/06/08 12:00:39;;;;;;;5.80;5.13;;;26.00;67.40;;;;;;20784572;28;20733;-64
2023/06/08 12:10:43;;;;;;;7.00;5.63;;;25.40;67.10;;;;;;20896057;28;20259;-61
2023/06/08 12:20:46;;;;;;;8.43;6.70;;;24.80;70.00;;;;;;20907054;28;20212;-61
2023/06/08 12:30:49;;;;;;;9.80;6.80;;;24.30;72.80;;;;;;20788477;28;20276;-62
2023/06/08 12:40:52;;;;;;;7.83;6.33;;;23.80;75.40;;;;;;20829251;28;20648;-68
2023/06/08 12:50:57;;;;;;;14.53;6.60;;;23.50;78.40;;;;;;20776214;28;20312;-73
2023/06/08 13:00:59;;;;;;;12.53;7.07;;;23.20;79.20;;;;;;20672332;28;20306;-64
2023/06/08 13:11:01;;;;;;;9.97;7.40;;;23.20;80.20;;;;;;20671482;28;20663;-63
2023/06/08 13:21:03;;;;;;;13.17;6.90;;;23.60;80.60;;;;;;20669944;28;20732;-64
2023/06/08 13:31:05;;;;;;;13.13;7.00;;;24.40;79.10;;;;;;20672279;28;20241;-67
2023/06/08 13:41:09;;;;;;;10.33;5.77;;;25.30;76.70;;;;;;20672422;28;20214;-63
2023/06/08 13:51:11;;;;;;;7.93;5.87;;;26.00;73.70;;;;;;20670684;28;20249;-65
2023/06/08 14:01:13;;;;;;;8.40;5.40;;;26.50;71.60;;;;;;20670274;28;20261;-69
2023/06/08 14:11:15;;;;;;;5.75;5.20;;;27.10;67.90;;;;;;20669754;28;20641;-69
2023/06/08 14:21:17;;;;;;;11.77;4.85;;;27.60;62.30;;;;;;20668711;28;20684;-65
2023/06/08 14:31:19;;;;;;;4.90;4.40;;;29.40;57.20;;;;;;20668441;28;20607;-65
2023/06/08 14:41:22;;;;;;;5.20;4.50;;;30.60;53.60;;;;;;20668156;28;20276;-64
2023/06/08 14:51:25;;;;;;;7.22;5.00;;;30.80;52.80;;;;;;20667256;28;20249;-68
2023/06/08 15:01:40;;;;;;;7.63;4.50;;;31.00;51.40;;;;;;20667257;28;20216;-63
2023/06/08 15:11:42;;;;;;;5.50;4.75;;;32.40;48.70;;;;;;20666801;28;20269;-61
2023/06/08 15:21:44;;;;;;;5.15;4.72;;;31.70;48.90;;;;;;20667174;28;20206;-69
2023/06/08 15:31:46;;;;;;;19.83;5.20;;;29.20;52.20;;;;;;20670837;28;20233;-64
2023/06/08 15:41:47;;;;;;;12.43;4.27;;;27.40;55.20;;;;;;20681183;28;20312;-64
2023/06/08 15:51:49;;;;;;;5.97;4.30;;;25.20;57.70;;;;;;20679595;28;20277;-60
2023/06/08 16:01:51;;;;;;;10.23;6.03;;;23.50;57.70;;;;;;20679206;28;20662;-67
2023/06/08 16:11:53;;;;;;;5.53;4.20;;;22.60;59.20;;;;;;20723422;28;20233;-67
2023/06/08 16:21:55;;;;;;;8.23;4.40;;;22.00;61.70;;;;;;20694505;28;20295;-75
2023/06/08 16:31:57;;;;;;;6.93;4.80;;;21.70;62.80;;;;;;20758250;28;20243;-73
2023/06/08 16:41:58;;;;;;;5.37;4.17;;;21.60;64.40;;;;;;20716713;28;20208;-75
2023/06/08 16:52:00;;;;;;;5.50;4.10;;;21.40;67.30;;;;;;20675788;28;20679;-61
2023/06/08 17:02:02;;;;;;;4.40;4.00;;;21.30;69.40;;;;;;20674819;28;20284;-70
2023/06/08 17:12:04;;;;;;;7.33;4.90;;;20.80;72.60;;;;;;20684266;28;20229;-60
2023/06/08 17:22:06;;;;;;;4.67;3.93;;;20.80;73.50;;;;;;20704129;28;20236;-74
2023/06/08 17:32:08;;;;;;;6.83;4.40;;;20.70;73.20;;;;;;20735265;28;20236;-62
2023/06/08 17:42:10;;;;;;;5.80;4.43;;;20.50;76.10;;;;;;20746841;28;20653;-60
2023/06/08 17:52:13;;;;;;;6.07;4.57;;;20.50;78.00;;;;;;20688631;28;20339;-64
2023/06/08 18:02:19;;;;;;;7.57;4.80;;;20.50;79.20;;;;;;20669910;28;20290;-64
2023/06/08 18:12:20;;;;;;;7.30;4.27;;;20.60;80.90;;;;;;20670045;28;20661;-63
2023/06/08 18:22:23;;;;;;;7.60;4.90;;;20.70;81.30;;;;;;20669213;28;20250;-63
2023/06/08 18:32:24;;;;;;;8.60;5.07;;;20.60;82.10;;;;;;20668090;28;20591;-63
2023/06/08 18:42:26;;;;;;;8.40;5.37;;;20.40;83.90;;;;;;20667881;28;20247;-62
2023/06/08 18:52:30;;;;;;;8.37;5.33;;;20.20;84.30;;;;;;20665789;28;20363;-64
2023/06/08 19:02:32;;;;;;;7.37;5.67;;;20.10;85.40;;;;;;20663416;28;20215;-63
2023/06/08 19:12:34;;;;;;;10.47;7.83;;;19.90;86.90;;;;;;20681760;28;20236;-63
2023/06/08 19:22:36;;;;;;;9.77;5.33;;;19.90;88.10;;;;;;20682860;28;20214;-66
2023/06/08 19:32:38;;;;;;;7.90;5.83;;;19.80;89.30;;;;;;20681672;28;20725;-65
2023/06/08 19:42:40;;;;;;;7.80;5.83;;;19.70;90.10;;;;;;20681106;28;20215;-64
2023/06/08 19:52:41;;;;;;;11.20;6.00;;;19.60;90.50;;;;;;20680409;28;20240;-69
2023/06/08 20:02:43;;;;;;;9.33;6.00;;;19.50;91.00;;;;;;20655418;28;20220;-67
2023/06/08 20:12:46;;;;;;;8.90;5.77;;;19.30;91.60;;;;;;20616694;28;20726;-62
2023/06/08 20:23:15;;;;;;;9.27;6.30;;;19.20;92.10;;;;;;21020821;27;20575;-60
2023/06/08 20:33:16;;;;;;;11.47;5.63;;;19.10;92.70;;;;;;20935235;28;20560;-60
2023/06/08 20:43:18;;;;;;;14.77;6.03;;;19.10;93.00;;;;;;20933216;28;20244;-60
2023/06/08 20:53:20;;;;;;;16.63;6.00;;;19.10;93.40;;;;;;20918332;28;20259;-60
2023/06/08 21:03:26;;;;;;;8.77;5.90;;;19.10;93.50;;;;;;20931799;28;20582;-62
2023/06/08 21:13:28;;;;;;;9.53;6.10;;;19.10;93.90;;;;;;20972063;28;20274;-60
2023/06/08 21:23:30;;;;;;;7.27;6.43;;;19.00;94.00;;;;;;20938740;28;20262;-63
2023/06/08 21:33:32;;;;;;;10.80;7.00;;;18.90;94.20;;;;;;20879133;28;20576;-62
2023/06/08 21:43:35;;;;;;;12.40;7.57;;;18.80;94.60;;;;;;20883932;28;20686;-62
2023/06/08 21:53:37;;;;;;;10.67;7.40;;;18.60;95.00;;;;;;20883468;28;20251;-61
2023/06/08 22:03:39;;;;;;;9.80;7.20;;;18.50;95.40;;;;;;20872521;28;20255;-61
2023/06/08 22:13:42;;;;;;;10.80;7.90;;;18.50;95.70;;;;;;20849614;28;20237;-63
2023/06/08 22:23:44;;;;;;;10.17;8.00;;;18.40;95.90;;;;;;20879715;28;20215;-61
2023/06/08 22:33:48;;;;;;;9.50;7.43;;;18.20;96.20;;;;;;20870030;28;20235;-61
2023/06/08 22:43:50;;;;;;;11.30;8.40;;;18.10;96.60;;;;;;20868799;28;20706;-61
2023/06/08 22:53:52;;;;;;;11.97;8.33;;;18.00;96.70;;;;;;20877367;28;20740;-63
2023/06/08 23:03:53;;;;;;;12.33;8.73;;;17.90;96.80;;;;;;20867532;28;20566;-61
2023/06/08 23:13:55;;;;;;;10.07;8.20;;;17.70;96.90;;;;;;20866444;28;20295;-60
2023/06/08 23:24:02;;;;;;;10.57;9.30;;;17.60;97.10;;;;;;20881592;28;20219;-64
2023/06/08 23:34:04;;;;;;;9.57;8.57;;;17.50;97.20;;;;;;20866962;28;20244;-63
2023/06/08 23:44:07;;;;;;;9.90;8.70;;;17.30;97.40;;;;;;20877612;28;20290;-60
2023/06/08 23:54:08;;;;;;;12.43;9.10;;;17.40;97.50;;;;;;20872098;28;20230;-63
